sensor_id;sensor_type;location;lat;lon;timestamp;P1;durP1;ratioP1;P2;durP2;ratioP2
48733;SDS011;34530;52.084;5.146;2022-08-26T00:00:54;6.53;;;2.00;;
48733;SDS011;34530;52.084;5.146;2022-08-26T00:03:20;4.93;;;1.65;;
48733;SDS011;34530;52.084;5.146;2022-08-26T00:05:47;6.50;;;1.80;;
48733;SDS011;34530;52.084;5.146;2022-08-26T00:08:15;6.25;;;1.48;;
48733;SDS011;34530;52.084;5.146;2022-08-26T00:10:42;6.43;;;2.00;;
48733;SDS011;34530;52.084;5.146;2022-08-26T00:13:08;6.60;;;1.60;;
48733;SDS011;34530;52.084;5.146;2022-08-26T00:15:35;7.07;;;1.67;;
48733;SDS011;34530;52.084;5.146;2022-08-26T00:18:02;4.63;;;1.40;;
48733;SDS011;34530;52.084;5.146;2022-08-26T00:20:30;4.85;;;2.22;;
48733;SDS011;34530;52.084;5.146;2022-08-26T00:22:57;7.82;;;2.05;;
48733;SDS011;34530;52.084;5.146;2022-08-26T00:25:22;4.47;;;1.70;;
48733;SDS011;34530;52.084;5.146;2022-08-26T00:27:48;4.68;;;2.00;;
48733;SDS011;34530;52.084;5.146;2022-08-26T00:30:19;6.13;;;1.85;;
48733;SDS011;34530;52.084;5.146;2022-08-26T00:32:50;5.07;;;1.40;;
48733;SDS011;34530;52.084;5.146;2022-08-26T00:35:16;6.20;;;1.90;;
48733;SDS011;34530;52.084;5.146;2022-08-26T00:37:42;4.05;;;1.40;;
48733;SDS011;34530;52.084;5.146;2022-08-26T00:40:09;6.05;;;1.60;;
48733;SDS011;34530;52.084;5.146;2022-08-26T00:42:38;4.68;;;1.88;;
48733;SDS011;34530;52.084;5.146;2022-08-26T00:45:04;5.25;;;1.35;;
48733;SDS011;34530;52.084;5.146;2022-08-26T00:47:33;6.75;;;1.45;;
48733;SDS011;34530;52.084;5.146;2022-08-26T00:50:10;4.45;;;1.15;;
48733;SDS011;34530;52.084;5.146;2022-08-26T00:52:40;3.85;;;1.17;;
48733;SDS011;34530;52.084;5.146;2022-08-26T00:55:10;3.78;;;1.00;;
48733;SDS011;34530;52.084;5.146;2022-08-26T00:57:40;3.63;;;1.30;;
48733;SDS011;34530;52.084;5.146;2022-08-26T01:00:09;4.25;;;1.45;;
48733;SDS011;34530;52.084;5.146;2022-08-26T01:02:38;3.92;;;1.40;;
48733;SDS011;34530;52.084;5.146;2022-08-26T01:05:05;3.65;;;1.20;;
48733;SDS011;34530;52.084;5.146;2022-08-26T01:07:31;6.10;;;1.40;;
48733;SDS011;34530;52.084;5.146;2022-08-26T01:09:58;5.50;;;1.83;;
48733;SDS011;34530;52.084;5.146;2022-08-26T01:12:26;8.73;;;1.55;;
48733;SDS011;34530;52.084;5.146;2022-08-26T01:14:55;6.03;;;1.95;;
48733;SDS011;34530;52.084;5.146;2022-08-26T01:17:21;5.57;;;1.60;;
48733;SDS011;34530;52.084;5.146;2022-08-26T01:20:05;5.93;;;1.27;;
48733;SDS011;34530;52.084;5.146;2022-08-26T01:22:44;4.45;;;1.33;;
48733;SDS011;34530;52.084;5.146;2022-08-26T01:25:32;5.20;;;1.20;;
48733;SDS011;34530;52.084;5.146;2022-08-26T01:28:01;3.65;;;1.73;;
48733;SDS011;34530;52.084;5.146;2022-08-26T01:30:31;6.72;;;1.85;;
48733;SDS011;34530;52.084;5.146;2022-08-26T01:32:58;5.18;;;1.60;;
48733;SDS011;34530;52.084;5.146;2022-08-26T01:35:27;6.28;;;1.70;;
48733;SDS011;34530;52.084;5.146;2022-08-26T01:37:53;3.95;;;1.35;;
48733;SDS011;34530;52.084;5.146;2022-08-26T01:40:22;3.47;;;1.35;;
48733;SDS011;34530;52.084;5.146;2022-08-26T01:42:52;3.55;;;1.27;;
48733;SDS011;34530;52.084;5.146;2022-08-26T01:45:19;7.72;;;1.60;;
48733;SDS011;34530;52.084;5.146;2022-08-26T01:47:49;4.60;;;1.40;;
48733;SDS011;34530;52.084;5.146;2022-08-26T01:50:19;2.33;;;0.90;;
48733;SDS011;34530;52.084;5.146;2022-08-26T01:52:48;5.00;;;1.40;;
48733;SDS011;34530;52.084;5.146;2022-08-26T01:55:16;3.20;;;1.05;;
48733;SDS011;34530;52.084;5.146;2022-08-26T01:57:44;3.72;;;1.25;;
48733;SDS011;34530;52.084;5.146;2022-08-26T02:00:13;4.20;;;1.38;;
48733;SDS011;34530;52.084;5.146;2022-08-26T02:02:44;4.22;;;1.42;;
48733;SDS011;34530;52.084;5.146;2022-08-26T02:05:16;5.45;;;1.10;;
48733;SDS011;34530;52.084;5.146;2022-08-26T02:07:45;2.70;;;1.02;;
48733;SDS011;34530;52.084;5.146;2022-08-26T02:10:13;3.95;;;1.20;;
48733;SDS011;34530;52.084;5.146;2022-08-26T02:12:39;4.70;;;1.17;;
48733;SDS011;34530;52.084;5.146;2022-08-26T02:15:06;5.22;;;1.45;;
48733;SDS011;34530;52.084;5.146;2022-08-26T02:17:52;3.78;;;1.10;;
48733;SDS011;34530;52.084;5.146;2022-08-26T02:20:19;5.30;;;1.23;;
48733;SDS011;34530;52.084;5.146;2022-08-26T02:22:46;3.58;;;1.63;;
48733;SDS011;34530;52.084;5.146;2022-08-26T02:25:23;3.47;;;1.13;;
48733;SDS011;34530;52.084;5.146;2022-08-26T02:28:09;3.60;;;1.27;;
48733;SDS011;34530;52.084;5.146;2022-08-26T02:30:36;5.00;;;1.38;;
48733;SDS011;34530;52.084;5.146;2022-08-26T02:33:04;5.85;;;1.50;;
48733;SDS011;34530;52.084;5.146;2022-08-26T02:35:31;5.40;;;1.15;;
48733;SDS011;34530;52.084;5.146;2022-08-26T02:37:57;5.25;;;1.45;;
48733;SDS011;34530;52.084;5.146;2022-08-26T02:40:26;6.75;;;1.65;;
48733;SDS011;34530;52.084;5.146;2022-08-26T02:42:54;2.97;;;0.90;;
48733;SDS011;34530;52.084;5.146;2022-08-26T02:45:20;4.25;;;0.93;;
48733;SDS011;34530;52.084;5.146;2022-08-26T02:47:53;3.47;;;1.08;;
48733;SDS011;34530;52.084;5.146;2022-08-26T02:50:20;4.47;;;1.08;;
48733;SDS011;34530;52.084;5.146;2022-08-26T02:52:46;3.55;;;1.25;;
48733;SDS011;34530;52.084;5.146;2022-08-26T02:55:12;5.20;;;1.42;;
48733;SDS011;34530;52.084;5.146;2022-08-26T02:57:38;4.70;;;1.17;;
48733;SDS011;34530;52.084;5.146;2022-08-26T03:00:06;3.80;;;0.98;;
48733;SDS011;34530;52.084;5.146;2022-08-26T03:02:34;6.03;;;1.13;;
48733;SDS011;34530;52.084;5.146;2022-08-26T03:05:00;6.43;;;1.13;;
48733;SDS011;34530;52.084;5.146;2022-08-26T03:07:26;5.38;;;1.00;;
48733;SDS011;34530;52.084;5.146;2022-08-26T03:09:52;5.72;;;1.10;;
48733;SDS011;34530;52.084;5.146;2022-08-26T03:12:18;3.47;;;1.17;;
48733;SDS011;34530;52.084;5.146;2022-08-26T03:14:44;5.78;;;1.23;;
48733;SDS011;34530;52.084;5.146;2022-08-26T03:17:11;3.80;;;1.15;;
48733;SDS011;34530;52.084;5.146;2022-08-26T03:19:37;4.90;;;1.00;;
48733;SDS011;34530;52.084;5.146;2022-08-26T03:22:03;3.20;;;0.80;;
48733;SDS011;34530;52.084;5.146;2022-08-26T03:24:28;5.35;;;1.17;;
48733;SDS011;34530;52.084;5.146;2022-08-26T03:26:54;3.88;;;0.77;;
48733;SDS011;34530;52.084;5.146;2022-08-26T03:29:20;6.30;;;1.35;;
48733;SDS011;34530;52.084;5.146;2022-08-26T03:32:05;4.43;;;1.20;;
48733;SDS011;34530;52.084;5.146;2022-08-26T03:34:31;3.75;;;1.38;;
48733;SDS011;34530;52.084;5.146;2022-08-26T03:36:57;6.25;;;0.88;;
48733;SDS011;34530;52.084;5.146;2022-08-26T03:39:23;3.83;;;0.82;;
48733;SDS011;34530;52.084;5.146;2022-08-26T03:41:49;6.72;;;1.25;;
48733;SDS011;34530;52.084;5.146;2022-08-26T03:44:15;5.68;;;1.83;;
48733;SDS011;34530;52.084;5.146;2022-08-26T03:46:41;6.88;;;1.67;;
48733;SDS011;34530;52.084;5.146;2022-08-26T03:49:06;3.17;;;0.90;;
48733;SDS011;34530;52.084;5.146;2022-08-26T03:51:33;3.40;;;1.00;;
48733;SDS011;34530;52.084;5.146;2022-08-26T03:54:00;1.58;;;0.93;;
48733;SDS011;34530;52.084;5.146;2022-08-26T03:56:27;5.90;;;0.88;;
48733;SDS011;34530;52.084;5.146;2022-08-26T03:58:57;3.30;;;0.80;;
48733;SDS011;34530;52.084;5.146;2022-08-26T04:01:27;5.43;;;1.05;;
48733;SDS011;34530;52.084;5.146;2022-08-26T04:03:54;3.67;;;1.00;;
48733;SDS011;34530;52.084;5.146;2022-08-26T04:06:24;4.93;;;1.20;;
48733;SDS011;34530;52.084;5.146;2022-08-26T04:09:06;4.00;;;1.38;;
48733;SDS011;34530;52.084;5.146;2022-08-26T04:11:34;2.97;;;1.00;;
48733;SDS011;34530;52.084;5.146;2022-08-26T04:14:01;2.50;;;1.00;;
48733;SDS011;34530;52.084;5.146;2022-08-26T04:16:29;4.53;;;0.90;;
48733;SDS011;34530;52.084;5.146;2022-08-26T04:18:55;4.28;;;1.35;;
48733;SDS011;34530;52.084;5.146;2022-08-26T04:21:21;2.85;;;0.77;;
48733;SDS011;34530;52.084;5.146;2022-08-26T04:23:48;4.10;;;1.02;;
48733;SDS011;34530;52.084;5.146;2022-08-26T04:26:15;4.18;;;0.98;;
48733;SDS011;34530;52.084;5.146;2022-08-26T04:28:42;2.58;;;0.85;;
48733;SDS011;34530;52.084;5.146;2022-08-26T04:31:11;1.52;;;0.75;;
48733;SDS011;34530;52.084;5.146;2022-08-26T04:33:39;3.30;;;0.70;;
48733;SDS011;34530;52.084;5.146;2022-08-26T04:36:05;1.42;;;0.68;;
48733;SDS011;34530;52.084;5.146;2022-08-26T04:38:30;5.30;;;0.80;;
48733;SDS011;34530;52.084;5.146;2022-08-26T04:40:57;2.28;;;0.93;;
48733;SDS011;34530;52.084;5.146;2022-08-26T04:43:23;2.92;;;0.70;;
48733;SDS011;34530;52.084;5.146;2022-08-26T04:45:52;2.55;;;0.88;;
48733;SDS011;34530;52.084;5.146;2022-08-26T04:48:18;5.32;;;0.95;;
48733;SDS011;34530;52.084;5.146;2022-08-26T04:50:44;2.70;;;0.90;;
48733;SDS011;34530;52.084;5.146;2022-08-26T04:53:09;4.80;;;1.20;;
48733;SDS011;34530;52.084;5.146;2022-08-26T04:55:35;4.38;;;1.15;;
48733;SDS011;34530;52.084;5.146;2022-08-26T04:58:00;4.40;;;1.17;;
48733;SDS011;34530;52.084;5.146;2022-08-26T05:00:26;4.38;;;0.88;;
48733;SDS011;34530;52.084;5.146;2022-08-26T05:02:52;3.75;;;0.85;;
48733;SDS011;34530;52.084;5.146;2022-08-26T05:05:17;2.58;;;0.70;;
48733;SDS011;34530;52.084;5.146;2022-08-26T05:07:43;4.03;;;1.25;;
48733;SDS011;34530;52.084;5.146;2022-08-26T05:10:09;2.40;;;0.90;;
48733;SDS011;34530;52.084;5.146;2022-08-26T05:12:35;4.95;;;1.30;;
48733;SDS011;34530;52.084;5.146;2022-08-26T05:15:01;3.75;;;1.17;;
48733;SDS011;34530;52.084;5.146;2022-08-26T05:17:26;3.95;;;1.10;;
48733;SDS011;34530;52.084;5.146;2022-08-26T05:19:52;3.10;;;1.20;;
48733;SDS011;34530;52.084;5.146;2022-08-26T05:22:18;4.72;;;1.30;;
48733;SDS011;34530;52.084;5.146;2022-08-26T05:24:44;4.75;;;1.17;;
48733;SDS011;34530;52.084;5.146;2022-08-26T05:27:10;5.90;;;1.25;;
48733;SDS011;34530;52.084;5.146;2022-08-26T05:29:36;5.50;;;1.15;;
48733;SDS011;34530;52.084;5.146;2022-08-26T05:32:02;5.05;;;1.30;;
48733;SDS011;34530;52.084;5.146;2022-08-26T05:34:28;4.82;;;1.23;;
48733;SDS011;34530;52.084;5.146;2022-08-26T05:36:54;8.18;;;1.52;;
48733;SDS011;34530;52.084;5.146;2022-08-26T05:39:19;6.65;;;1.60;;
48733;SDS011;34530;52.084;5.146;2022-08-26T05:41:47;2.95;;;1.15;;
48733;SDS011;34530;52.084;5.146;2022-08-26T05:44:13;3.75;;;1.10;;
48733;SDS011;34530;52.084;5.146;2022-08-26T05:46:41;3.45;;;1.13;;
48733;SDS011;34530;52.084;5.146;2022-08-26T05:49:08;5.50;;;1.65;;
48733;SDS011;34530;52.084;5.146;2022-08-26T05:51:34;5.03;;;1.23;;
48733;SDS011;34530;52.084;5.146;2022-08-26T05:54:00;58.00;;;15.23;;
48733;SDS011;34530;52.084;5.146;2022-08-26T05:56:27;48.97;;;12.73;;
48733;SDS011;34530;52.084;5.146;2022-08-26T05:58:53;36.90;;;7.57;;
48733;SDS011;34530;52.084;5.146;2022-08-26T06:01:21;19.88;;;5.85;;
48733;SDS011;34530;52.084;5.146;2022-08-26T06:03:50;14.45;;;3.33;;
48733;SDS011;34530;52.084;5.146;2022-08-26T06:06:23;13.55;;;2.33;;
48733;SDS011;34530;52.084;5.146;2022-08-26T06:08:50;4.68;;;1.40;;
48733;SDS011;34530;52.084;5.146;2022-08-26T06:11:18;6.07;;;1.40;;
48733;SDS011;34530;52.084;5.146;2022-08-26T06:13:45;9.80;;;1.60;;
48733;SDS011;34530;52.084;5.146;2022-08-26T06:16:14;4.38;;;1.20;;
48733;SDS011;34530;52.084;5.146;2022-08-26T06:18:43;5.05;;;1.63;;
48733;SDS011;34530;52.084;5.146;2022-08-26T06:21:14;5.35;;;1.67;;
48733;SDS011;34530;52.084;5.146;2022-08-26T06:23:59;6.80;;;1.40;;
48733;SDS011;34530;52.084;5.146;2022-08-26T06:26:46;5.18;;;1.17;;
48733;SDS011;34530;52.084;5.146;2022-08-26T06:29:18;4.75;;;1.77;;
48733;SDS011;34530;52.084;5.146;2022-08-26T06:31:45;4.72;;;1.40;;
48733;SDS011;34530;52.084;5.146;2022-08-26T06:34:11;4.60;;;1.15;;
48733;SDS011;34530;52.084;5.146;2022-08-26T06:36:39;8.40;;;1.73;;
48733;SDS011;34530;52.084;5.146;2022-08-26T06:39:07;8.40;;;1.52;;
48733;SDS011;34530;52.084;5.146;2022-08-26T06:41:34;5.30;;;1.48;;
48733;SDS011;34530;52.084;5.146;2022-08-26T06:44:01;6.55;;;1.30;;
48733;SDS011;34530;52.084;5.146;2022-08-26T06:46:29;6.20;;;1.20;;
48733;SDS011;34530;52.084;5.146;2022-08-26T06:48:55;4.95;;;1.20;;
48733;SDS011;34530;52.084;5.146;2022-08-26T06:51:23;4.72;;;1.40;;
48733;SDS011;34530;52.084;5.146;2022-08-26T06:53:55;6.50;;;1.20;;
48733;SDS011;34530;52.084;5.146;2022-08-26T06:56:24;7.47;;;1.42;;
48733;SDS011;34530;52.084;5.146;2022-08-26T06:58:52;3.83;;;1.40;;
48733;SDS011;34530;52.084;5.146;2022-08-26T07:03:49;6.15;;;1.25;;
48733;SDS011;34530;52.084;5.146;2022-08-26T07:06:16;4.53;;;1.63;;
48733;SDS011;34530;52.084;5.146;2022-08-26T07:08:43;8.18;;;1.48;;
48733;SDS011;34530;52.084;5.146;2022-08-26T07:11:10;6.43;;;1.23;;
48733;SDS011;34530;52.084;5.146;2022-08-26T07:13:36;7.18;;;1.42;;
48733;SDS011;34530;52.084;5.146;2022-08-26T07:16:02;6.55;;;1.42;;
48733;SDS011;34530;52.084;5.146;2022-08-26T07:18:33;7.05;;;1.63;;
48733;SDS011;34530;52.084;5.146;2022-08-26T07:21:04;3.03;;;0.95;;
48733;SDS011;34530;52.084;5.146;2022-08-26T07:23:31;5.15;;;1.35;;
48733;SDS011;34530;52.084;5.146;2022-08-26T07:25:57;8.93;;;1.20;;
48733;SDS011;34530;52.084;5.146;2022-08-26T07:28:24;9.05;;;1.30;;
48733;SDS011;34530;52.084;5.146;2022-08-26T07:30:50;7.32;;;1.75;;
48733;SDS011;34530;52.084;5.146;2022-08-26T07:33:16;7.00;;;1.73;;
48733;SDS011;34530;52.084;5.146;2022-08-26T07:35:43;5.72;;;1.20;;
48733;SDS011;34530;52.084;5.146;2022-08-26T07:38:09;6.70;;;1.25;;
48733;SDS011;34530;52.084;5.146;2022-08-26T07:40:35;6.47;;;1.73;;
48733;SDS011;34530;52.084;5.146;2022-08-26T07:43:01;11.70;;;1.48;;
48733;SDS011;34530;52.084;5.146;2022-08-26T07:45:27;7.00;;;1.73;;
48733;SDS011;34530;52.084;5.146;2022-08-26T07:47:53;3.38;;;1.05;;
48733;SDS011;34530;52.084;5.146;2022-08-26T07:50:19;5.38;;;1.40;;
48733;SDS011;34530;52.084;5.146;2022-08-26T07:52:46;4.25;;;1.35;;
48733;SDS011;34530;52.084;5.146;2022-08-26T07:55:12;6.13;;;1.27;;
48733;SDS011;34530;52.084;5.146;2022-08-26T07:57:37;6.20;;;1.10;;
48733;SDS011;34530;52.084;5.146;2022-08-26T08:00:04;8.90;;;1.60;;
48733;SDS011;34530;52.084;5.146;2022-08-26T08:02:32;7.97;;;1.52;;
48733;SDS011;34530;52.084;5.146;2022-08-26T08:04:58;8.80;;;1.30;;
48733;SDS011;34530;52.084;5.146;2022-08-26T08:07:24;8.88;;;1.88;;
48733;SDS011;34530;52.084;5.146;2022-08-26T08:09:50;6.05;;;1.30;;
48733;SDS011;34530;52.084;5.146;2022-08-26T08:12:16;3.75;;;1.13;;
48733;SDS011;34530;52.084;5.146;2022-08-26T08:14:43;4.40;;;1.23;;
48733;SDS011;34530;52.084;5.146;2022-08-26T08:17:11;6.35;;;1.23;;
48733;SDS011;34530;52.084;5.146;2022-08-26T08:19:37;4.03;;;1.17;;
48733;SDS011;34530;52.084;5.146;2022-08-26T08:22:03;3.45;;;0.80;;
48733;SDS011;34530;52.084;5.146;2022-08-26T08:24:29;5.75;;;1.38;;
48733;SDS011;34530;52.084;5.146;2022-08-26T08:26:57;4.60;;;1.17;;
48733;SDS011;34530;52.084;5.146;2022-08-26T08:29:24;4.53;;;1.02;;
48733;SDS011;34530;52.084;5.146;2022-08-26T08:31:52;5.90;;;0.82;;
48733;SDS011;34530;52.084;5.146;2022-08-26T08:34:17;4.18;;;1.10;;
48733;SDS011;34530;52.084;5.146;2022-08-26T08:36:43;9.65;;;1.15;;
48733;SDS011;34530;52.084;5.146;2022-08-26T08:39:10;3.17;;;1.00;;
48733;SDS011;34530;52.084;5.146;2022-08-26T08:41:40;8.63;;;1.60;;
48733;SDS011;34530;52.084;5.146;2022-08-26T08:44:29;7.57;;;1.42;;
48733;SDS011;34530;52.084;5.146;2022-08-26T08:46:55;10.35;;;1.60;;
48733;SDS011;34530;52.084;5.146;2022-08-26T08:49:36;3.53;;;0.82;;
48733;SDS011;34530;52.084;5.146;2022-08-26T08:52:08;23.88;;;2.05;;
48733;SDS011;34530;52.084;5.146;2022-08-26T08:54:44;3.80;;;1.30;;
48733;SDS011;34530;52.084;5.146;2022-08-26T08:57:11;13.80;;;1.33;;
48733;SDS011;34530;52.084;5.146;2022-08-26T08:59:46;5.43;;;1.00;;
48733;SDS011;34530;52.084;5.146;2022-08-26T09:02:29;4.32;;;1.13;;
48733;SDS011;34530;52.084;5.146;2022-08-26T09:05:12;5.43;;;0.98;;
48733;SDS011;34530;52.084;5.146;2022-08-26T09:07:56;4.10;;;0.60;;
48733;SDS011;34530;52.084;5.146;2022-08-26T09:13:20;2.60;;;0.90;;
48733;SDS011;34530;52.084;5.146;2022-08-26T09:15:49;3.45;;;0.70;;
48733;SDS011;34530;52.084;5.146;2022-08-26T09:21:02;4.10;;;1.20;;
48733;SDS011;34530;52.084;5.146;2022-08-26T09:23:33;4.47;;;0.93;;
48733;SDS011;34530;52.084;5.146;2022-08-26T09:26:03;6.38;;;0.90;;
48733;SDS011;34530;52.084;5.146;2022-08-26T09:28:41;4.63;;;1.10;;
48733;SDS011;34530;52.084;5.146;2022-08-26T09:31:17;6.22;;;1.02;;
48733;SDS011;34530;52.084;5.146;2022-08-26T09:42:00;4.10;;;1.10;;
48733;SDS011;34530;52.084;5.146;2022-08-26T09:44:33;4.03;;;0.93;;
48733;SDS011;34530;52.084;5.146;2022-08-26T09:47:15;4.40;;;0.80;;
48733;SDS011;34530;52.084;5.146;2022-08-26T09:50:02;3.78;;;0.82;;
48733;SDS011;34530;52.084;5.146;2022-08-26T09:52:29;1.92;;;0.60;;
48733;SDS011;34530;52.084;5.146;2022-08-26T09:55:00;4.18;;;0.88;;
48733;SDS011;34530;52.084;5.146;2022-08-26T09:57:30;4.20;;;0.68;;
48733;SDS011;34530;52.084;5.146;2022-08-26T09:59:58;3.03;;;0.70;;
48733;SDS011;34530;52.084;5.146;2022-08-26T10:04:57;4.10;;;0.88;;
48733;SDS011;34530;52.084;5.146;2022-08-26T10:10:15;3.85;;;1.08;;
48733;SDS011;34530;52.084;5.146;2022-08-26T10:12:45;4.32;;;1.10;;
48733;SDS011;34530;52.084;5.146;2022-08-26T10:15:20;3.22;;;0.70;;
48733;SDS011;34530;52.084;5.146;2022-08-26T10:18:35;3.42;;;0.95;;
48733;SDS011;34530;52.084;5.146;2022-08-26T10:20:40;3.10;;;0.90;;
48733;SDS011;34530;52.084;5.146;2022-08-26T10:23:18;10.90;;;1.23;;
48733;SDS011;34530;52.084;5.146;2022-08-26T10:25:53;4.85;;;0.95;;
48733;SDS011;34530;52.084;5.146;2022-08-26T10:28:49;2.60;;;1.00;;
48733;SDS011;34530;52.084;5.146;2022-08-26T10:34:04;4.03;;;0.93;;
48733;SDS011;34530;52.084;5.146;2022-08-26T10:36:32;2.25;;;0.65;;
48733;SDS011;34530;52.084;5.146;2022-08-26T10:39:29;5.10;;;1.25;;
48733;SDS011;34530;52.084;5.146;2022-08-26T10:42:12;4.53;;;1.20;;
48733;SDS011;34530;52.084;5.146;2022-08-26T10:44:44;3.63;;;0.90;;
48733;SDS011;34530;52.084;5.146;2022-08-26T10:47:21;3.20;;;0.85;;
48733;SDS011;34530;52.084;5.146;2022-08-26T10:49:52;3.97;;;0.98;;
48733;SDS011;34530;52.084;5.146;2022-08-26T10:52:24;4.95;;;1.10;;
48733;SDS011;34530;52.084;5.146;2022-08-26T10:57:44;4.25;;;1.08;;
48733;SDS011;34530;52.084;5.146;2022-08-26T11:00:37;2.83;;;0.85;;
48733;SDS011;34530;52.084;5.146;2022-08-26T11:08:54;5.30;;;0.80;;
48733;SDS011;34530;52.084;5.146;2022-08-26T11:11:41;2.88;;;0.88;;
48733;SDS011;34530;52.084;5.146;2022-08-26T11:16:44;4.60;;;0.85;;
48733;SDS011;34530;52.084;5.146;2022-08-26T11:34:59;2.70;;;0.70;;
48733;SDS011;34530;52.084;5.146;2022-08-26T11:37:34;4.13;;;1.17;;
48733;SDS011;34530;52.084;5.146;2022-08-26T11:40:15;2.75;;;1.08;;
48733;SDS011;34530;52.084;5.146;2022-08-26T11:42:48;3.10;;;0.98;;
48733;SDS011;34530;52.084;5.146;2022-08-26T11:47:50;8.05;;;1.52;;
48733;SDS011;34530;52.084;5.146;2022-08-26T11:50:20;3.72;;;1.00;;
48733;SDS011;34530;52.084;5.146;2022-08-26T11:52:55;2.22;;;0.70;;
48733;SDS011;34530;52.084;5.146;2022-08-26T11:55:31;4.97;;;1.33;;
48733;SDS011;34530;52.084;5.146;2022-08-26T11:57:59;4.45;;;1.55;;
48733;SDS011;34530;52.084;5.146;2022-08-26T12:00:28;5.40;;;1.00;;
48733;SDS011;34530;52.084;5.146;2022-08-26T12:02:58;3.15;;;1.13;;
48733;SDS011;34530;52.084;5.146;2022-08-26T12:05:27;6.95;;;1.30;;
48733;SDS011;34530;52.084;5.146;2022-08-26T12:07:54;3.67;;;1.00;;
48733;SDS011;34530;52.084;5.146;2022-08-26T12:10:24;3.80;;;0.85;;
48733;SDS011;34530;52.084;5.146;2022-08-26T12:12:53;4.40;;;1.20;;
48733;SDS011;34530;52.084;5.146;2022-08-26T12:15:22;5.15;;;1.50;;
48733;SDS011;34530;52.084;5.146;2022-08-26T12:17:49;3.67;;;1.20;;
48733;SDS011;34530;52.084;5.146;2022-08-26T12:22:54;4.13;;;1.40;;
48733;SDS011;34530;52.084;5.146;2022-08-26T12:25:22;6.00;;;1.52;;
48733;SDS011;34530;52.084;5.146;2022-08-26T12:27:48;6.22;;;1.00;;
48733;SDS011;34530;52.084;5.146;2022-08-26T12:30:16;3.05;;;1.00;;
48733;SDS011;34530;52.084;5.146;2022-08-26T12:32:47;5.22;;;1.10;;
48733;SDS011;34530;52.084;5.146;2022-08-26T12:35:27;3.40;;;1.20;;
48733;SDS011;34530;52.084;5.146;2022-08-26T12:37:53;3.22;;;1.30;;
48733;SDS011;34530;52.084;5.146;2022-08-26T12:40:32;3.65;;;1.20;;
48733;SDS011;34530;52.084;5.146;2022-08-26T12:42:59;8.25;;;1.60;;
48733;SDS011;34530;52.084;5.146;2022-08-26T12:45:29;5.53;;;1.33;;
48733;SDS011;34530;52.084;5.146;2022-08-26T12:47:56;4.50;;;1.80;;
48733;SDS011;34530;52.084;5.146;2022-08-26T12:50:25;5.40;;;1.60;;
48733;SDS011;34530;52.084;5.146;2022-08-26T12:53:04;6.97;;;1.65;;
48733;SDS011;34530;52.084;5.146;2022-08-26T12:55:42;2.15;;;1.30;;
48733;SDS011;34530;52.084;5.146;2022-08-26T13:00:45;4.90;;;1.45;;
48733;SDS011;34530;52.084;5.146;2022-08-26T13:08:45;3.55;;;1.08;;
48733;SDS011;34530;52.084;5.146;2022-08-26T13:11:15;6.63;;;1.13;;
48733;SDS011;34530;52.084;5.146;2022-08-26T13:13:44;6.18;;;1.80;;
48733;SDS011;34530;52.084;5.146;2022-08-26T13:16:17;5.80;;;1.20;;
48733;SDS011;34530;52.084;5.146;2022-08-26T13:18:48;4.25;;;1.42;;
48733;SDS011;34530;52.084;5.146;2022-08-26T13:21:20;3.28;;;1.23;;
48733;SDS011;34530;52.084;5.146;2022-08-26T13:23:47;10.32;;;1.58;;
48733;SDS011;34530;52.084;5.146;2022-08-26T13:26:14;4.40;;;0.98;;
48733;SDS011;34530;52.084;5.146;2022-08-26T13:28:40;8.27;;;2.15;;
48733;SDS011;34530;52.084;5.146;2022-08-26T13:31:06;4.60;;;1.13;;
48733;SDS011;34530;52.084;5.146;2022-08-26T13:33:34;7.43;;;1.55;;
48733;SDS011;34530;52.084;5.146;2022-08-26T13:36:00;5.50;;;1.23;;
48733;SDS011;34530;52.084;5.146;2022-08-26T13:38:26;7.80;;;1.60;;
48733;SDS011;34530;52.084;5.146;2022-08-26T13:40:51;5.20;;;1.30;;
48733;SDS011;34530;52.084;5.146;2022-08-26T13:43:17;5.93;;;1.80;;
48733;SDS011;34530;52.084;5.146;2022-08-26T13:45:43;3.45;;;1.08;;
48733;SDS011;34530;52.084;5.146;2022-08-26T13:48:09;5.40;;;1.70;;
48733;SDS011;34530;52.084;5.146;2022-08-26T13:50:35;5.32;;;1.58;;
48733;SDS011;34530;52.084;5.146;2022-08-26T13:53:00;4.90;;;1.73;;
48733;SDS011;34530;52.084;5.146;2022-08-26T13:55:26;5.20;;;1.35;;
48733;SDS011;34530;52.084;5.146;2022-08-26T13:57:53;5.65;;;2.17;;
48733;SDS011;34530;52.084;5.146;2022-08-26T14:00:20;4.22;;;1.60;;
48733;SDS011;34530;52.084;5.146;2022-08-26T14:02:46;6.53;;;1.45;;
48733;SDS011;34530;52.084;5.146;2022-08-26T14:05:12;7.65;;;1.50;;
48733;SDS011;34530;52.084;5.146;2022-08-26T14:07:38;4.90;;;1.40;;
48733;SDS011;34530;52.084;5.146;2022-08-26T14:10:05;5.82;;;1.55;;
48733;SDS011;34530;52.084;5.146;2022-08-26T14:12:31;4.93;;;2.15;;
48733;SDS011;34530;52.084;5.146;2022-08-26T14:14:56;5.75;;;1.60;;
48733;SDS011;34530;52.084;5.146;2022-08-26T14:17:22;5.25;;;1.30;;
48733;SDS011;34530;52.084;5.146;2022-08-26T14:19:50;6.03;;;1.48;;
48733;SDS011;34530;52.084;5.146;2022-08-26T14:22:16;5.57;;;1.48;;
48733;SDS011;34530;52.084;5.146;2022-08-26T14:24:45;4.43;;;1.10;;
48733;SDS011;34530;52.084;5.146;2022-08-26T14:27:11;9.05;;;2.15;;
48733;SDS011;34530;52.084;5.146;2022-08-26T14:29:37;6.38;;;1.50;;
48733;SDS011;34530;52.084;5.146;2022-08-26T14:32:05;4.22;;;1.42;;
48733;SDS011;34530;52.084;5.146;2022-08-26T14:34:36;6.13;;;1.75;;
48733;SDS011;34530;52.084;5.146;2022-08-26T14:37:03;8.20;;;1.05;;
48733;SDS011;34530;52.084;5.146;2022-08-26T14:39:29;6.18;;;1.50;;
48733;SDS011;34530;52.084;5.146;2022-08-26T14:41:56;11.82;;;2.00;;
48733;SDS011;34530;52.084;5.146;2022-08-26T14:44:26;7.60;;;1.52;;
48733;SDS011;34530;52.084;5.146;2022-08-26T14:46:55;9.57;;;1.88;;
48733;SDS011;34530;52.084;5.146;2022-08-26T14:49:21;7.20;;;2.03;;
48733;SDS011;34530;52.084;5.146;2022-08-26T14:51:48;5.32;;;1.60;;
48733;SDS011;34530;52.084;5.146;2022-08-26T14:54:14;7.82;;;1.70;;
48733;SDS011;34530;52.084;5.146;2022-08-26T14:59:09;7.90;;;1.98;;
48733;SDS011;34530;52.084;5.146;2022-08-26T15:01:35;10.25;;;2.00;;
48733;SDS011;34530;52.084;5.146;2022-08-26T15:04:01;8.30;;;1.90;;
48733;SDS011;34530;52.084;5.146;2022-08-26T15:06:27;6.97;;;2.10;;
48733;SDS011;34530;52.084;5.146;2022-08-26T15:08:54;8.27;;;1.85;;
48733;SDS011;34530;52.084;5.146;2022-08-26T15:11:20;5.60;;;1.25;;
48733;SDS011;34530;52.084;5.146;2022-08-26T15:13:46;6.95;;;1.83;;
48733;SDS011;34530;52.084;5.146;2022-08-26T15:16:12;4.30;;;1.80;;
48733;SDS011;34530;52.084;5.146;2022-08-26T15:18:38;4.32;;;1.42;;
48733;SDS011;34530;52.084;5.146;2022-08-26T15:21:04;3.58;;;1.48;;
48733;SDS011;34530;52.084;5.146;2022-08-26T15:23:31;4.57;;;1.45;;
48733;SDS011;34530;52.084;5.146;2022-08-26T15:25:57;7.35;;;1.73;;
48733;SDS011;34530;52.084;5.146;2022-08-26T15:28:23;5.78;;;1.95;;
48733;SDS011;34530;52.084;5.146;2022-08-26T15:30:49;6.18;;;1.40;;
48733;SDS011;34530;52.084;5.146;2022-08-26T15:33:15;5.65;;;1.50;;
48733;SDS011;34530;52.084;5.146;2022-08-26T15:35:41;3.75;;;1.30;;
48733;SDS011;34530;52.084;5.146;2022-08-26T15:38:07;4.10;;;1.48;;
48733;SDS011;34530;52.084;5.146;2022-08-26T15:40:32;7.82;;;1.60;;
48733;SDS011;34530;52.084;5.146;2022-08-26T15:42:58;3.92;;;1.73;;
48733;SDS011;34530;52.084;5.146;2022-08-26T15:45:24;11.23;;;1.85;;
48733;SDS011;34530;52.084;5.146;2022-08-26T15:47:49;4.75;;;1.50;;
48733;SDS011;34530;52.084;5.146;2022-08-26T15:50:15;6.25;;;1.67;;
48733;SDS011;34530;52.084;5.146;2022-08-26T15:52:40;5.90;;;1.88;;
48733;SDS011;34530;52.084;5.146;2022-08-26T15:55:06;8.50;;;3.00;;
48733;SDS011;34530;52.084;5.146;2022-08-26T15:57:33;7.68;;;1.67;;
48733;SDS011;34530;52.084;5.146;2022-08-26T15:59:59;4.30;;;2.17;;
48733;SDS011;34530;52.084;5.146;2022-08-26T16:02:24;5.68;;;1.67;;
48733;SDS011;34530;52.084;5.146;2022-08-26T16:04:50;6.60;;;1.60;;